sensor_id;sensor_type;location;lat;lon;timestamp;pressure;altitude;pressure_sealevel;temperature;humidity
65754;BME280;52488;47.502;18.940;2023-04-01T00:00:51;96724.41;;;7.59;100.00
65754;BME280;52488;47.502;18.940;2023-04-01T00:01:54;96732.97;;;7.65;100.00
65754;BME280;52488;47.502;18.940;2023-04-01T00:02:57;96731.53;;;7.64;100.00
65754;BME280;52488;47.502;18.940;2023-04-01T00:04:01;96722.63;;;7.64;100.00
65754;BME280;52488;47.502;18.940;2023-04-01T00:05:05;96720.75;;;7.66;100.00
65754;BME280;52488;47.502;18.940;2023-04-01T00:06:09;96717.16;;;7.64;100.00
65754;BME280;52488;47.502;18.940;2023-04-01T00:07:13;96724.53;;;7.61;100.00
65754;BME280;52488;47.502;18.940;2023-04-01T00:08:16;96730.47;;;7.58;100.00
65754;BME280;52488;47.502;18.940;2023-04-01T00:09:19;96734.41;;;7.66;100.00
65754;BME280;52488;47.502;18.940;2023-04-01T00:10:23;96733.56;;;7.64;100.00
65754;BME280;52488;47.502;18.940;2023-04-01T00:11:25;96739.87;;;7.66;100.00
65754;BME280;52488;47.502;18.940;2023-04-01T00:12:29;96736.53;;;7.68;100.00
65754;BME280;52488;47.502;18.940;2023-04-01T00:13:32;96739.37;;;7.70;100.00
65754;BME280;52488;47.502;18.940;2023-04-01T00:14:35;96733.78;;;7.80;100.00
65754;BME280;52488;47.502;18.940;2023-04-01T00:15:39;96729.03;;;7.80;100.00
65754;BME280;52488;47.502;18.940;2023-04-01T00:16:42;96726.66;;;7.75;100.00
65754;BME280;52488;47.502;18.940;2023-04-01T00:17:45;96727.84;;;7.72;100.00
65754;BME280;52488;47.502;18.940;2023-04-01T00:18:49;96731.87;;;7.71;100.00
65754;BME280;52488;47.502;18.940;2023-04-01T00:19:55;96727.72;;;7.70;100.00
65754;BME280;52488;47.502;18.940;2023-04-01T00:20:58;96733.31;;;7.72;100.00
65754;BME280;52488;47.502;18.940;2023-04-01T00:22:00;96729.38;;;7.75;100.00
65754;BME280;52488;47.502;18.940;2023-04-01T00:23:04;96730.22;;;7.77;100.00
65754;BME280;52488;47.502;18.940;2023-04-01T00:24:07;96730.34;;;7.79;100.00
65754;BME280;52488;47.502;18.940;2023-04-01T00:25:10;96730.72;;;7.74;100.00
65754;BME280;52488;47.502;18.940;2023-04-01T00:26:13;96721.91;;;7.75;100.00
65754;BME280;52488;47.502;18.940;2023-04-01T00:27:17;96725.47;;;7.78;100.00
65754;BME280;52488;47.502;18.940;2023-04-01T00:28:20;96723.22;;;7.74;100.00
65754;BME280;52488;47.502;18.940;2023-04-01T00:29:23;96720.25;;;7.70;100.00
65754;BME280;52488;47.502;18.940;2023-04-01T00:30:27;96718.13;;;7.68;100.00
65754;BME280;52488;47.502;18.940;2023-04-01T00:31:30;96724.91;;;7.67;100.00
65754;BME280;52488;47.502;18.940;2023-04-01T00:32:34;96723.56;;;7.68;100.00
65754;BME280;52488;47.502;18.940;2023-04-01T00:33:38;96725.00;;;7.70;100.00
65754;BME280;52488;47.502;18.940;2023-04-01T00:34:43;96724.28;;;7.69;100.00
65754;BME280;52488;47.502;18.940;2023-04-01T00:35:47;96721.78;;;7.73;100.00
65754;BME280;52488;47.502;18.940;2023-04-01T00:36:50;96713.34;;;7.69;100.00
65754;BME280;52488;47.502;18.940;2023-04-01T00:37:55;96716.91;;;7.72;100.00
65754;BME280;52488;47.502;18.940;2023-04-01T00:38:58;96714.06;;;7.70;100.00
65754;BME280;52488;47.502;18.940;2023-04-01T00:40:05;96719.16;;;7.75;100.00
65754;BME280;52488;47.502;18.940;2023-04-01T00:41:10;96717.03;;;7.74;100.00
65754;BME280;52488;47.502;18.940;2023-04-01T00:42:17;96718.72;;;7.67;100.00
65754;BME280;52488;47.502;18.940;2023-04-01T00:43:20;96713.25;;;7.67;100.00
65754;BME280;52488;47.502;18.940;2023-04-01T00:44:27;96717.75;;;7.62;100.00
65754;BME280;52488;47.502;18.940;2023-04-01T00:45:36;96712.91;;;7.61;100.00
65754;BME280;52488;47.502;18.940;2023-04-01T00:46:40;96711.22;;;7.67;100.00
65754;BME280;52488;47.502;18.940;2023-04-01T00:47:44;96709.19;;;7.68;100.00
65754;BME280;52488;47.502;18.940;2023-04-01T00:48:51;96708.34;;;7.65;100.00
65754;BME280;52488;47.502;18.940;2023-04-01T00:49:55;96717.28;;;7.66;100.00
65754;BME280;52488;47.502;18.940;2023-04-01T00:51:02;96715.03;;;7.62;100.00
65754;BME280;52488;47.502;18.940;2023-04-01T00:52:11;96711.09;;;7.65;100.00
65754;BME280;52488;47.502;18.940;2023-04-01T00:53:17;96711.81;;;7.66;100.00
65754;BME280;52488;47.502;18.940;2023-04-01T00:54:23;96708.25;;;7.63;100.00
65754;BME280;52488;47.502;18.940;2023-04-01T00:55:29;96709.56;;;7.62;100.00
65754;BME280;52488;47.502;18.940;2023-04-01T00:56:35;96703.38;;;7.62;100.00
65754;BME280;52488;47.502;18.940;2023-04-01T00:57:39;96705.28;;;7.59;100.00
65754;BME280;52488;47.502;18.940;2023-04-01T00:58:48;96713.38;;;7.57;100.00
65754;BME280;52488;47.502;18.940;2023-04-01T00:59:54;96716.81;;;7.58;100.00
65754;BME280;52488;47.502;18.940;2023-04-01T01:00:59;96713.38;;;7.57;100.00
65754;BME280;52488;47.502;18.940;2023-04-01T01:02:03;96714.91;;;7.60;100.00
65754;BME280;52488;47.502;18.940;2023-04-01T01:03:08;96717.16;;;7.64;100.00
65754;BME280;52488;47.502;18.940;2023-04-01T01:04:26;96716.56;;;7.65;100.00
65754;BME280;52488;47.502;18.940;2023-04-01T01:06:00;96718.00;;;7.66;100.00
65754;BME280;52488;47.502;18.940;2023-04-01T01:07:12;96715.03;;;7.62;100.00
65754;BME280;52488;47.502;18.940;2023-04-01T01:10:43;96709.66;;;7.64;100.00
65754;BME280;52488;47.502;18.940;2023-04-01T01:12:14;96715.13;;;7.64;100.00
65754;BME280;52488;47.502;18.940;2023-04-01T01:13:32;96714.06;;;7.70;100.00
65754;BME280;52488;47.502;18.940;2023-04-01T01:14:56;96713.34;;;7.69;100.00
65754;BME280;52488;47.502;18.940;2023-04-01T01:19:20;96704.34;;;7.66;100.00
65754;BME280;52488;47.502;18.940;2023-04-01T01:25:31;96703.38;;;7.74;100.00
65754;BME280;52488;47.502;18.940;2023-04-01T01:27:03;96701.94;;;7.73;100.00
65754;BME280;52488;47.502;18.940;2023-04-01T01:31:17;96710.03;;;7.71;100.00
65754;BME280;52488;47.502;18.940;2023-04-01T01:32:42;96704.44;;;7.68;100.00
65754;BME280;52488;47.502;18.940;2023-04-01T01:34:09;96707.87;;;7.69;100.00
65754;BME280;52488;47.502;18.940;2023-04-01T01:35:27;96710.03;;;7.71;100.00
65754;BME280;52488;47.502;18.940;2023-04-01T01:36:34;96707.53;;;7.75;100.00
65754;BME280;52488;47.502;18.940;2023-04-01T01:37:40;96702.53;;;7.71;100.00
65754;BME280;52488;47.502;18.940;2023-04-01T01:38:47;96705.97;;;7.72;100.00
65754;BME280;52488;47.502;18.940;2023-04-01T01:39:57;96705.88;;;7.70;100.00
65754;BME280;52488;47.502;18.940;2023-04-01T01:41:02;96708.34;;;7.65;100.00
65754;BME280;52488;47.502;18.940;2023-04-01T01:42:09;96704.09;;;7.62;100.00
65754;BME280;52488;47.502;18.940;2023-04-01T01:43:19;96712.28;;;7.62;100.00
65754;BME280;52488;47.502;18.940;2023-04-01T01:44:24;96715.63;;;7.61;100.00
65754;BME280;52488;47.502;18.940;2023-04-01T01:45:30;96700.53;;;7.60;100.00
65754;BME280;52488;47.502;18.940;2023-04-01T01:46:36;96705.28;;;7.59;100.00
65754;BME280;52488;47.502;18.940;2023-04-01T01:47:41;96707.31;;;7.59;100.00
65754;BME280;52488;47.502;18.940;2023-04-01T01:48:46;96703.16;;;7.58;100.00
65754;BME280;52488;47.502;18.940;2023-04-01T01:49:52;96704.47;;;7.57;100.00
65754;BME280;52488;47.502;18.940;2023-04-01T01:50:57;96706.59;;;7.58;100.00
65754;BME280;52488;47.502;18.940;2023-04-01T01:52:01;96702.34;;;7.55;100.00
65754;BME280;52488;47.502;18.940;2023-04-01T01:53:07;96701.13;;;7.58;100.00
65754;BME280;52488;47.502;18.940;2023-04-01T01:54:15;96702.69;;;7.61;100.00
65754;BME280;52488;47.502;18.940;2023-04-01T01:55:26;96707.91;;;7.57;100.00
65754;BME280;52488;47.502;18.940;2023-04-01T01:56:30;96706.25;;;7.52;100.00
65754;BME280;52488;47.502;18.940;2023-04-01T01:57:38;96703.28;;;7.48;100.00
65754;BME280;52488;47.502;18.940;2023-04-01T01:58:47;96706.00;;;7.48;100.00
65754;BME280;52488;47.502;18.940;2023-04-01T01:59:56;96699.34;;;7.51;100.00
65754;BME280;52488;47.502;18.940;2023-04-01T02:01:07;96707.91;;;7.46;100.00
65754;BME280;52488;47.502;18.940;2023-04-01T02:02:13;96701.03;;;7.45;100.00
65754;BME280;52488;47.502;18.940;2023-04-01T02:03:19;96701.13;;;7.47;100.00
65754;BME280;52488;47.502;18.940;2023-04-01T02:04:23;96702.56;;;7.48;100.00
65754;BME280;52488;47.502;18.940;2023-04-01T02:05:29;96693.75;;;7.49;100.00
65754;BME280;52488;47.502;18.940;2023-04-01T02:06:38;96700.53;;;7.48;100.00
65754;BME280;52488;47.502;18.940;2023-04-01T02:07:44;96700.69;;;7.50;100.00
65754;BME280;52488;47.502;18.940;2023-04-01T02:08:52;96699.22;;;7.49;100.00
65754;BME280;52488;47.502;18.940;2023-04-01T02:09:57;96705.28;;;7.48;100.00
65754;BME280;52488;47.502;18.940;2023-04-01T02:11:04;96702.19;;;7.53;100.00
65754;BME280;52488;47.502;18.940;2023-04-01T02:12:11;96700.06;;;7.52;100.00
65754;BME280;52488;47.502;18.940;2023-04-01T02:13:30;96695.06;;;7.48;100.00
65754;BME280;52488;47.502;18.940;2023-04-01T02:14:39;96692.84;;;7.45;100.00
65754;BME280;52488;47.502;18.940;2023-04-01T02:15:47;96693.41;;;7.43;100.00
65754;BME280;52488;47.502;18.940;2023-04-01T02:18:01;96702.44;;;7.46;100.00
65754;BME280;52488;47.502;18.940;2023-04-01T02:19:06;96697.00;;;7.46;100.00
65754;BME280;52488;47.502;18.940;2023-04-01T02:20:15;96693.53;;;7.45;100.00
65754;BME280;52488;47.502;18.940;2023-04-01T02:21:20;96693.75;;;7.49;100.00
65754;BME280;52488;47.502;18.940;2023-04-01T02:22:37;96680.59;;;7.46;100.00
65754;BME280;52488;47.502;18.940;2023-04-01T02:23:42;96686.78;;;7.46;100.00
65754;BME280;52488;47.502;18.940;2023-04-01T02:24:45;96686.06;;;7.46;100.00
65754;BME280;52488;47.502;18.940;2023-04-01T02:25:48;96679.16;;;7.56;100.00
65754;BME280;52488;47.502;18.940;2023-04-01T02:26:52;96690.31;;;7.49;100.00
65754;BME280;52488;47.502;18.940;2023-04-01T02:27:57;96673.34;;;7.50;100.00
65754;BME280;52488;47.502;18.940;2023-04-01T02:29:03;96672.47;;;7.59;100.00
65754;BME280;52488;47.502;18.940;2023-04-01T02:30:09;96673.22;;;7.48;100.00
65754;BME280;52488;47.502;18.940;2023-04-01T02:31:12;96677.25;;;7.47;100.00
65754;BME280;52488;47.502;18.940;2023-04-01T02:32:19;96682.00;;;7.47;100.00
65754;BME280;52488;47.502;18.940;2023-04-01T02:33:22;96678.47;;;7.44;100.00
65754;BME280;52488;47.502;18.940;2023-04-01T02:34:26;96679.75;;;7.43;100.00
65754;BME280;52488;47.502;18.940;2023-04-01T02:35:29;96669.53;;;7.44;100.00
65754;BME280;52488;47.502;18.940;2023-04-01T02:36:35;96671.31;;;7.51;100.00
65754;BME280;52488;47.502;18.940;2023-04-01T02:37:39;96672.50;;;7.48;100.00
65754;BME280;52488;47.502;18.940;2023-04-01T02:38:46;96663.50;;;7.45;100.00
65754;BME280;52488;47.502;18.940;2023-04-01T02:39:50;96665.97;;;7.41;100.00
65754;BME280;52488;47.502;18.940;2023-04-01T02:40:59;96667.66;;;7.46;100.00
65754;BME280;52488;47.502;18.940;2023-04-01T02:42:03;96663.59;;;7.47;100.00
65754;BME280;52488;47.502;18.940;2023-04-01T02:43:06;96662.78;;;7.45;100.00
65754;BME280;52488;47.502;18.940;2023-04-01T02:44:10;96670.03;;;7.40;100.00
65754;BME280;52488;47.502;18.940;2023-04-01T02:45:14;96667.91;;;7.38;100.00
65754;BME280;52488;47.502;18.940;2023-04-01T02:46:17;96668.00;;;7.40;100.00
65754;BME280;52488;47.502;18.940;2023-04-01T02:47:20;96667.41;;;7.42;100.00
65754;BME280;52488;47.502;18.940;2023-04-01T02:48:23;96672.88;;;7.42;100.00
65754;BME280;52488;47.502;18.940;2023-04-01T02:49:27;96670.03;;;7.40;100.00
65754;BME280;52488;47.502;18.940;2023-04-01T02:50:30;96672.63;;;7.38;100.00
65754;BME280;52488;47.502;18.940;2023-04-01T02:51:34;96667.16;;;7.38;100.00
65754;BME280;52488;47.502;18.940;2023-04-01T02:52:37;96678.34;;;7.42;100.00
65754;BME280;52488;47.502;18.940;2023-04-01T02:53:40;96681.66;;;7.40;100.00
65754;BME280;52488;47.502;18.940;2023-04-01T02:54:43;96675.34;;;7.38;100.00
65754;BME280;52488;47.502;18.940;2023-04-01T02:55:46;96678.69;;;7.36;100.00
65754;BME280;52488;47.502;18.940;2023-04-01T02:56:49;96676.09;;;7.38;100.00
65754;BME280;52488;47.502;18.940;2023-04-01T02:57:52;96673.22;;;7.36;100.00
65754;BME280;52488;47.502;18.940;2023-04-01T02:58:55;96677.87;;;7.46;100.00
65754;BME280;52488;47.502;18.940;2023-04-01T02:59:58;96676.31;;;7.43;100.00
65754;BME280;52488;47.502;18.940;2023-04-01T03:01:01;96682.47;;;7.43;100.00
65754;BME280;52488;47.502;18.940;2023-04-01T03:02:04;96678.22;;;7.40;100.00
65754;BME280;52488;47.502;18.940;2023-04-01T03:03:08;96679.41;;;7.37;100.00
65754;BME280;52488;47.502;18.940;2023-04-01T03:04:11;96676.66;;;7.37;100.00
65754;BME280;52488;47.502;18.940;2023-04-01T03:05:14;96680.72;;;7.36;100.00
65754;BME280;52488;47.502;18.940;2023-04-01T03:06:18;96683.09;;;7.41;100.00
65754;BME280;52488;47.502;18.940;2023-04-01T03:07:21;96684.16;;;7.48;100.00
65754;BME280;52488;47.502;18.940;2023-04-01T03:08:24;96683.19;;;7.44;100.00
65754;BME280;52488;47.502;18.940;2023-04-01T03:09:27;96682.25;;;7.51;100.00
65754;BME280;52488;47.502;18.940;2023-04-01T03:10:31;96679.88;;;7.45;100.00
65754;BME280;52488;47.502;18.940;2023-04-01T03:11:34;96681.41;;;7.36;100.00
65754;BME280;52488;47.502;18.940;2023-04-01T03:12:38;96682.62;;;7.33;100.00
65754;BME280;52488;47.502;18.940;2023-04-01T03:13:41;96676.94;;;7.29;100.00
65754;BME280;52488;47.502;18.940;2023-04-01T03:14:43;96675.59;;;7.30;100.00
65754;BME280;52488;47.502;18.940;2023-04-01T03:15:47;96673.47;;;7.29;100.00
65754;BME280;52488;47.502;18.940;2023-04-01T03:16:49;96667.31;;;7.28;100.00
65754;BME280;52488;47.502;18.940;2023-04-01T03:17:53;96661.59;;;7.24;100.00
65754;BME280;52488;47.502;18.940;2023-04-01T03:18:56;96676.69;;;7.25;100.00
65754;BME280;52488;47.502;18.940;2023-04-01T03:20:02;96676.78;;;7.27;100.00
65754;BME280;52488;47.502;18.940;2023-04-01T03:21:19;96684.16;;;7.25;100.00
65754;BME280;52488;47.502;18.940;2023-04-01T03:22:22;96680.63;;;7.22;100.00
65754;BME280;52488;47.502;18.940;2023-04-01T03:23:25;96690.59;;;7.18;100.00
65754;BME280;52488;47.502;18.940;2023-04-01T03:24:28;96683.22;;;7.20;100.00
65754;BME280;52488;47.502;18.940;2023-04-01T03:25:31;96691.53;;;7.22;100.00
65754;BME280;52488;47.502;18.940;2023-04-01T03:26:34;96692.72;;;7.19;100.00
65754;BME280;52488;47.502;18.940;2023-04-01T03:27:37;96690.34;;;7.13;100.00
65754;BME280;52488;47.502;18.940;2023-04-01T03:28:40;96688.56;;;7.06;100.00
65754;BME280;52488;47.502;18.940;2023-04-01T03:29:43;96689.72;;;7.03;100.00
65754;BME280;52488;47.502;18.940;2023-04-01T03:30:47;96688.41;;;7.04;100.00
65754;BME280;52488;47.502;18.940;2023-04-01T03:31:50;96696.50;;;7.02;100.00
65754;BME280;52488;47.502;18.940;2023-04-01T03:32:53;96690.22;;;7.00;100.00
65754;BME280;52488;47.502;18.940;2023-04-01T03:33:56;96691.50;;;6.99;100.00
65754;BME280;52488;47.502;18.940;2023-04-01T03:34:59;96691.28;;;6.95;100.00
65754;BME280;52488;47.502;18.940;2023-04-01T03:36:03;96696.03;;;6.94;100.00
65754;BME280;52488;47.502;18.940;2023-04-01T03:37:09;96694.59;;;6.93;100.00
65754;BME280;52488;47.502;18.940;2023-04-01T03:38:12;96694.13;;;6.97;100.00
65754;BME280;52488;47.502;18.940;2023-04-01T03:39:15;96688.56;;;6.95;100.00
65754;BME280;52488;47.502;18.940;2023-04-01T03:40:21;96690.31;;;6.90;100.00
65754;BME280;52488;47.502;18.940;2023-04-01T03:41:25;96695.78;;;6.90;100.00
65754;BME280;52488;47.502;18.940;2023-04-01T03:42:28;96701.34;;;6.92;100.00
65754;BME280;52488;47.502;18.940;2023-04-01T03:43:33;96693.16;;;6.92;100.00
65754;BME280;52488;47.502;18.940;2023-04-01T03:44:36;96708.59;;;6.87;100.00
65754;BME280;52488;47.502;18.940;2023-04-01T03:45:50;96702.06;;;6.81;100.00
65754;BME280;52488;47.502;18.940;2023-04-01T03:46:53;96704.66;;;6.79;100.00
65754;BME280;52488;47.502;18.940;2023-04-01T03:47:56;96709.53;;;6.80;100.00
65754;BME280;52488;47.502;18.940;2023-04-01T03:49:00;96704.78;;;6.81;100.00
65754;BME280;52488;47.502;18.940;2023-04-01T03:50:03;96704.31;;;6.84;100.00
65754;BME280;52488;47.502;18.940;2023-04-01T03:51:07;96706.91;;;6.82;100.00
65754;BME280;52488;47.502;18.940;2023-04-01T03:52:11;96700.50;;;6.78;100.00
65754;BME280;52488;47.502;18.940;2023-04-01T03:53:14;96704.53;;;6.77;100.00
65754;BME280;52488;47.502;18.940;2023-04-01T03:54:17;96702.13;;;6.71;100.00
65754;BME280;52488;47.502;18.940;2023-04-01T03:55:22;96700.47;;;6.66;100.00
65754;BME280;52488;47.502;18.940;2023-04-01T03:56:25;96704.75;;;6.69;100.00
65754;BME280;52488;47.502;18.940;2023-04-01T03:57:31;96706.06;;;6.68;100.00
65754;BME280;52488;47.502;18.940;2023-04-01T03:58:34;96708.66;;;6.66;100.00
65754;BME280;52488;47.502;18.940;2023-04-01T03:59:38;96707.38;;;6.67;100.00
65754;BME280;52488;47.502;18.940;2023-04-01T04:00:41;96715.66;;;6.69;100.00
65754;BME280;52488;47.502;18.940;2023-04-01T04:01:46;96705.22;;;6.66;100.00
65754;BME280;52488;47.502;18.940;2023-04-01T04:02:51;96711.62;;;6.70;100.00
65754;BME280;52488;47.502;18.940;2023-04-01T04:03:54;96716.28;;;6.68;100.00
65754;BME280;52488;47.502;18.940;2023-04-01T04:04:57;96715.22;;;6.73;100.00
65754;BME280;52488;47.502;18.940;2023-04-01T04:06:03;96717.25;;;6.72;100.00
65754;BME280;52488;47.502;18.940;2023-04-01T04:07:05;96714.13;;;6.66;100.00
65754;BME280;52488;47.502;18.940;2023-04-01T04:08:09;96718.63;;;6.61;100.00
65754;BME280;52488;47.502;18.940;2023-04-01T04:09:11;96714.59;;;6.62;100.00
65754;BME280;52488;47.502;18.940;2023-04-01T04:10:14;96710.81;;;6.68;100.00
65754;BME280;52488;47.502;18.940;2023-04-01T04:11:19;96707.47;;;6.69;100.00
65754;BME280;52488;47.502;18.940;2023-04-01T04:12:22;96705.81;;;6.64;100.00
65754;BME280;52488;47.502;18.940;2023-04-01T04:13:25;96701.28;;;6.57;100.00
65754;BME280;52488;47.502;18.940;2023-04-01T04:14:28;96705.19;;;6.54;100.00
65754;BME280;52488;47.502;18.940;2023-04-01T04:15:31;96704.09;;;6.47;100.00
65754;BME280;52488;47.502;18.940;2023-04-01T04:16:35;96700.41;;;6.43;100.00
65754;BME280;52488;47.502;18.940;2023-04-01T04:17:39;96700.75;;;6.37;100.00
65754;BME280;52488;47.502;18.940;2023-04-01T04:18:42;96703.63;;;6.39;100.00
65754;BME280;52488;47.502;18.940;2023-04-01T04:19:46;96708.81;;;6.35;100.00
65754;BME280;52488;47.502;18.940;2023-04-01T04:20:49;96704.28;;;6.28;100.00
65754;BME280;52488;47.502;18.940;2023-04-01T04:21:53;96702.72;;;6.25;100.00
65754;BME280;52488;47.502;18.940;2023-04-01T04:22:57;96708.63;;;6.21;100.00
65754;BME280;52488;47.502;18.940;2023-04-01T04:24:01;96709.09;;;6.18;100.00
65754;BME280;52488;47.502;18.940;2023-04-01T04:25:04;96714.41;;;6.16;100.00
65754;BME280;52488;47.502;18.940;2023-04-01T04:26:10;96707.53;;;6.15;100.00
65754;BME280;52488;47.502;18.940;2023-04-01T04:27:13;96717.00;;;6.14;100.00
65754;BME280;52488;47.502;18.940;2023-04-01T04:28:17;96708.72;;;6.12;100.00
65754;BME280;52488;47.502;18.940;2023-04-01T04:29:21;96709.28;;;6.10;100.00
65754;BME280;52488;47.502;18.940;2023-04-01T04:30:25;96705.84;;;6.09;100.00
65754;BME280;52488;47.502;18.940;2023-04-01T04:31:28;96703.97;;;6.12;100.00
65754;BME280;52488;47.502;18.940;2023-04-01T04:32:31;96701.25;;;6.12;100.00
65754;BME280;52488;47.502;18.940;2023-04-01T04:33:35;96704.69;;;6.13;100.00
65754;BME280;52488;47.502;18.940;2023-04-01T04:34:38;96701.25;;;6.12;100.00
65754;BME280;52488;47.502;18.940;2023-04-01T04:35:41;96699.81;;;6.11;100.00
65754;BME280;52488;47.502;18.940;2023-04-01T04:36:45;96700.66;;;6.14;100.00
65754;BME280;52488;47.502;18.940;2023-04-01T04:37:48;96696.50;;;6.13;100.00
65754;BME280;52488;47.502;18.940;2023-04-01T04:38:51;96702.66;;;6.13;100.00
65754;BME280;52488;47.502;18.940;2023-04-01T04:39:54;96700.53;;;6.12;100.00
65754;BME280;52488;47.502;18.940;2023-04-01T04:40:56;96696.97;;;6.09;100.00
65754;BME280;52488;47.502;18.940;2023-04-01T04:41:59;96700.66;;;6.14;100.00
65754;BME280;52488;47.502;18.940;2023-04-01T04:43:03;96698.75;;;6.16;100.00
65754;BME280;52488;47.502;18.940;2023-04-01T04:44:06;96692.72;;;6.18;100.00
65754;BME280;52488;47.502;18.940;2023-04-01T04:45:09;96694.16;;;6.19;100.00
65754;BME280;52488;47.502;18.940;2023-04-01T04:46:12;96695.47;;;6.18;100.00
65754;BME280;52488;47.502;18.940;2023-04-01T04:47:15;96699.63;;;6.19;100.00
65754;BME280;52488;47.502;18.940;2023-04-01T04:48:19;96698.69;;;6.26;100.00
65754;BME280;52488;47.502;18.940;2023-04-01T04:49:22;96702.59;;;6.23;100.00
65754;BME280;52488;47.502;18.940;2023-04-01T04:50:26;96694.28;;;6.21;100.00
65754;BME280;52488;47.502;18.940;2023-04-01T04:51:29;96699.16;;;6.22;100.00
65754;BME280;52488;47.502;18.940;2023-04-01T04:52:32;96701.75;;;6.20;100.00
65754;BME280;52488;47.502;18.940;2023-04-01T04:53:35;96701.63;;;6.18;100.00
65754;BME280;52488;47.502;18.940;2023-04-01T04:54:38;96697.00;;;6.21;100.00
65754;BME280;52488;47.502;18.940;2023-04-01T04:55:46;96699.88;;;6.23;100.00
65754;BME280;52488;47.502;18.940;2023-04-01T04:56:51;96698.44;;;6.22;100.00
65754;BME280;52488;47.502;18.940;2023-04-01T04:57:55;96699.88;;;6.23;100.00
65754;BME280;52488;47.502;18.940;2023-04-01T04:58:59;96700.00;;;6.25;100.00
65754;BME280;52488;47.502;18.940;2023-04-01T05:00:02;96699.28;;;6.24;100.00
65754;BME280;52488;47.502;18.940;2023-04-01T05:01:10;96692.41;;;6.23;100.00
65754;BME280;52488;47.502;18.940;2023-04-01T05:02:14;96691.94;;;6.27;100.00
65754;BME280;52488;47.502;18.940;2023-04-01T05:03:17;96699.28;;;6.24;100.00
65754;BME280;52488;47.502;18.940;2023-04-01T05:04:20;96698.13;;;6.27;100.00
65754;BME280;52488;47.502;18.940;2023-04-01T05:05:23;96690.75;;;6.30;100.00
65754;BME280;52488;47.502;18.940;2023-04-01T05:06:27;96695.16;;;6.35;100.00
65754;BME280;52488;47.502;18.940;2023-04-01T05:07:33;96689.00;;;6.34;100.00
65754;BME280;52488;47.502;18.940;2023-04-01T05:08:36;96692.00;;;6.39;100.00
65754;BME280;52488;47.502;18.940;2023-04-01T05:09:41;96700.87;;;6.39;100.00
65754;BME280;52488;47.502;18.940;2023-04-01T05:10:45;96703.72;;;6.41;100.00
65754;BME280;52488;47.502;18.940;2023-04-01T05:11:49;96699.84;;;6.44;100.00
65754;BME280;52488;47.502;18.940;2023-04-01T05:12:52;96701.97;;;6.46;100.00
65754;BME280;52488;47.502;18.940;2023-04-01T05:13:55;96702.22;;;6.50;100.00
65754;BME280;52488;47.502;18.940;2023-04-01T05:14:58;96705.78;;;6.52;100.00
65754;BME280;52488;47.502;18.940;2023-04-01T05:16:01;96704.84;;;6.59;100.00
65754;BME280;52488;47.502;18.940;2023-04-01T05:17:09;96704.28;;;6.61;100.00
65754;BME280;52488;47.502;18.940;2023-04-01T05:18:12;96701.06;;;6.65;100.00
65754;BME280;52488;47.502;18.940;2023-04-01T05:19:15;96706.66;;;6.67;100.00
65754;BME280;52488;47.502;18.940;2023-04-01T05:20:18;96698.13;;;6.72;100.00
65754;BME280;52488;47.502;18.940;2023-04-01T05:21:22;96706.91;;;6.82;100.00
65754;BME280;52488;47.502;18.940;2023-04-01T05:22:25;96703.00;;;6.85;100.00
65754;BME280;52488;47.502;18.940;2023-04-01T05:23:30;96710.41;;;6.95;100.00
65754;BME280;52488;47.502;18.940;2023-04-01T05:24:33;96707.66;;;6.95;100.00
65754;BME280;52488;47.502;18.940;2023-04-01T05:25:37;96704.09;;;6.92;100.00
65754;BME280;52488;47.502;18.940;2023-04-01T05:26:40;96711.22;;;7.09;100.00
65754;BME280;52488;47.502;18.940;2023-04-01T05:27:44;96712.44;;;7.06;100.00
65754;BME280;52488;47.502;18.940;2023-04-01T05:28:47;96711.47;;;7.01;100.00
65754;BME280;52488;47.502;18.940;2023-04-01T05:29:51;96716.22;;;7.01;100.00
65754;BME280;52488;47.502;18.940;2023-04-01T05:30:54;96709.34;;;7.00;100.00
65754;BME280;52488;47.502;18.940;2023-04-01T05:31:57;96711.56;;;7.03;100.00
65754;BME280;52488;47.502;18.940;2023-04-01T05:33:00;96711.13;;;7.07;100.00
65754;BME280;52488;47.502;18.940;2023-04-01T05:34:03;96716.81;;;7.11;100.00
65754;BME280;52488;47.502;18.940;2023-04-01T05:35:06;96717.66;;;7.13;100.00
65754;BME280;52488;47.502;18.940;2023-04-01T05:36:15;96722.66;;;7.17;100.00
65754;BME280;52488;47.502;18.940;2023-04-01T05:37:19;96716.47;;;7.17;100.00
65754;BME280;52488;47.502;18.940;2023-04-01T05:38:22;96720.72;;;7.20;100.00
65754;BME280;52488;47.502;18.940;2023-04-01T05:39:25;96719.56;;;7.23;100.00
65754;BME280;52488;47.502;18.940;2023-04-01T05:40:29;96719.78;;;7.27;100.00
65754;BME280;52488;47.502;18.940;2023-04-01T05:41:37;96723.34;;;7.29;100.00
65754;BME280;52488;47.502;18.940;2023-04-01T05:42:40;96719.44;;;7.32;100.00
65754;BME280;52488;47.502;18.940;2023-04-01T05:43:43;96732.63;;;7.36;100.00
65754;BME280;52488;47.502;18.940;2023-04-01T05:44:46;96725.38;;;7.40;100.00
65754;BME280;52488;47.502;18.940;2023-04-01T05:45:49;96727.66;;;7.44;100.00
65754;BME280;52488;47.502;18.940;2023-04-01T05:46:52;96723.59;;;7.45;100.00
65754;BME280;52488;47.502;18.940;2023-04-01T05:47:55;96725.97;;;7.51;100.00
65754;BME280;52488;47.502;18.940;2023-04-01T05:48:58;96731.09;;;7.56;100.00
65754;BME280;52488;47.502;18.940;2023-04-01T05:50:01;96731.19;;;7.58;100.00
65754;BME280;52488;47.502;18.940;2023-04-01T05:51:04;96726.56;;;7.61;100.00
65754;BME280;52488;47.502;18.940;2023-04-01T05:52:08;96720.59;;;7.64;100.00
65754;BME280;52488;47.502;18.940;2023-04-01T05:53:11;96717.41;;;7.68;100.00
65754;BME280;52488;47.502;18.940;2023-04-01T05:54:14;96721.66;;;7.71;100.00
65754;BME280;52488;47.502;18.940;2023-04-01T05:55:17;96719.06;;;7.73;100.00